Time;durP1;ratioP1;P1;durP2;ratioP2;P2;SDS_P1;SDS_P2;PMS_P1;PMS_P2;Temp;Humidity;BMP_temperature;BMP_pressure;BME280_temperature;BME280_humidity;BME280_pressure;Samples;Min_cycle;Max_cycle;Signal;HPM_P1;HPM_P2
2023/02/20 00:00:27;;;;;;;;;;;;;;;;;;6284704;22;19915;-94
2023/02/20 00:02:53;;;;;;;;;;;;;;;;;;6284541;22;20240;-96
2023/02/20 00:05:37;;;;;;;;;;;;;;;;;;6284288;22;19921;-96
2023/02/20 00:08:12;;;;;;;;;;;;;;;;;;6259032;22;19915;-95
2023/02/20 00:11:01;;;;;;;;;;;;;;;;;;;;;
2023/02/20 01:07:29;;;;;;;;;;;;;;;;;;6283072;22;19926;-95
2023/02/20 01:10:24;;;;;;;;;;;;;;;;;;;;;
2023/02/20 03:18:54;;;;;;;;;;;;;;;;;;;;;
2023/02/20 04:17:01;;;;;;;;;;;;;;;;;;6277011;22;20041;-94
2023/02/20 04:19:27;;;;;;;;;;;;;;;;;;6257401;22;20090;-95
2023/02/20 04:21:53;;;;;;;;;;;;;;;;;;6258461;22;20083;-96
2023/02/20 04:24:29;;;;;;;;;;;;;;;;;;;;;
2023/02/20 04:27:03;;;;;;;;;;;;;;;;;;6287250;22;19918;-95
2023/02/20 04:29:29;;;;;;;;;;;;;;;;;;6292250;22;19922;-94
2023/02/20 04:32:04;;;;;;;;;;;;;;;;;;6322319;22;19950;-94
2023/02/20 04:34:39;;;;;;;;;;;;;;;;;;6296331;22;19937;-95
2023/02/20 04:37:08;;;;;;;;;;;;;;;;;;6269669;22;19915;-93
2023/02/20 04:39:52;;;;;;;;;;;;;;;;;;6320916;22;19942;-94
2023/02/20 04:42:18;;;;;;;;;;;;;;;;;;6320559;22;19955;-94
2023/02/20 06:29:00;;;;;;;;;;;;;;;;;;6272072;22;19925;-93
2023/02/20 06:31:44;;;;;;;;;;;;;;;;;;6288805;22;19919;-92
2023/02/20 06:34:19;;;;;;;;;;;;;;;;;;6285179;22;20221;-95
2023/02/20 06:37:04;;;;;;;;;;;;;;;;;;;;;
2023/02/20 06:39:36;;;;;;;;;;;;;;;;;;6283189;22;19946;-95
2023/02/20 06:42:05;;;;;;;;;;;;;;;;;;6283846;22;19965;-95
2023/02/20 06:47:36;;;;;;;;;;;;;;;;;;6190344;23;19995;-95
2023/02/20 06:50:02;;;;;;;;;;;;;;;;;;6161560;23;19916;-96
2023/02/20 06:52:28;;;;;;;;;;;;;;;;;;6249537;22;19919;-93
2023/02/20 06:54:54;;;;;;;;;;;;;;;;;;6281737;22;19984;-94
2023/02/20 06:57:20;;;;;;;;;;;;;;;;;;6283537;22;19922;-92
2023/02/20 06:59:48;;;;;;;;;;;;;;;;;;6281667;22;19915;-92
2023/02/20 07:05:30;;;;;;;;;;;;;;;;;;6225583;22;20327;-94
2023/02/20 07:07:59;;;;;;;;;;;;;;;;;;6281611;22;19915;-92
2023/02/20 07:10:32;;;;;;;;;;;;;;;;;;6284185;22;19915;-91
2023/02/20 07:15:52;;;;;;;;;;;;;;;;;;6262021;22;19926;-94
2023/02/20 07:18:22;;;;;;;;;;;;;;;;;;6309762;22;19922;-95
2023/02/20 07:20:48;;;;;;;;;;;;;;;;;;6256978;22;19968;-96
2023/02/20 07:23:14;;;;;;;;;;;;;;;;;;6282773;22;19946;-95
2023/02/20 07:25:48;;;;;;;;;;;;;;;;;;6282735;22;19921;-94
2023/02/20 07:28:19;;;;;;;;;;;;;;;;;;6281374;22;19955;-95
2023/02/20 07:30:45;;;;;;;;;;;;;;;;;;6255894;22;19981;-95
2023/02/20 07:33:11;;;;;;;;;;;;;;;;;;6282189;22;19914;-94
2023/02/20 07:35:46;;;;;;;;;;;;;;;;;;6281596;22;19922;-95
2023/02/20 07:38:12;;;;;;;;;;;;;;;;;;6255003;22;19993;-94
2023/02/20 07:40:41;;;;;;;;;;;;;;;;;;6281332;22;19914;-96
2023/02/20 07:43:11;;;;;;;;;;;;;;;;;;6307841;22;20445;-94
2023/02/20 07:45:38;;;;;;;;;;;;;;;;;;6281018;22;19925;-95
2023/02/20 07:48:03;;;;;;;;;;;;;;;;;;6281269;22;19922;-95
2023/02/20 07:50:29;;;;;;;;;;;;;;;;;;6281837;22;19919;-95
2023/02/20 07:52:58;;;;;;;;;;;;;;;;;;6281398;22;19915;-94
2023/02/20 07:55:52;;;;;;;;;;;;;;;;;;6309694;22;19984;-94
2023/02/20 07:58:20;;;;;;;;;;;;;;;;;;6306780;22;19914;-95
2023/02/20 08:00:55;;;;;;;;;;;;;;;;;;6282090;22;19961;-95
2023/02/20 08:03:21;;;;;;;;;;;;;;;;;;6282684;22;19943;-94
2023/02/20 08:05:47;;;;;;;;;;;;;;;;;;6311136;22;20236;-96
2023/02/20 08:08:13;;;;;;;;;;;;;;;;;;6257411;22;19961;-95
2023/02/20 08:10:38;;;;;;;;;;;;;;;;;;6259693;22;19919;-94
2023/02/20 08:15:58;;;;;;;;;;;;;;;;;;6290019;22;19914;-94
2023/02/20 08:18:24;;;;;;;;;;;;;;;;;;6285341;22;19977;-95
2023/02/20 08:23:45;;;;;;;;;;;;;;;;;;6312344;22;19969;-94
2023/02/20 08:26:33;;;;;;;;;;;;;;;;;;;;;
2023/02/20 08:29:07;;;;;;;;;;;;;;;;;;6283171;22;19921;-96
2023/02/20 08:31:54;;;;;;;;;;;;;;;;;;6284096;22;19972;-94
2023/02/20 08:34:29;;;;;;;;;;;;;;;;;;;;;
2023/02/20 08:37:08;;;;;;;;;;;;;;;;;;;;;
2023/02/20 08:39:55;;;;;;;;;;;;;;;;;;6310054;22;19919;-95
2023/02/20 08:42:23;;;;;;;;;;;;;;;;;;6310681;22;19925;-95
2023/02/20 08:44:58;;;;;;;;;;;;;;;;;;6259557;22;20315;-94
2023/02/20 08:47:33;;;;;;;;;;;;;;;;;;6311551;22;19915;-95
2023/02/20 08:50:00;;;;;;;;;;;;;;;;;;6311422;22;19919;-94
2023/02/20 08:52:26;;;;;;;;;;;;;;;;;;6283321;22;19914;-95
2023/02/20 08:54:52;;;;;;;;;;;;;;;;;;6284560;22;19915;-92
2023/02/20 09:00:09;;;;;;;;;;;;;;;;;;6312729;22;20320;-96
2023/02/20 09:02:41;;;;;;;;;;;;;;;;;;6284245;22;20237;-95
2023/02/20 09:05:07;;;;;;;;;;;;;;;;;;6258687;22;19990;-95
2023/02/20 09:07:35;;;;;;;;;;;;;;;;;;6257514;22;19915;-94
2023/02/20 09:12:47;;;;;;;;;;;;;;;;;;6261565;22;19950;-93
2023/02/20 09:15:16;;;;;;;;;;;;;;;;;;6257602;22;20244;-93
2023/02/20 09:17:42;;;;;;;;;;;;;;;;;;6257413;22;19914;-93
2023/02/20 09:20:09;;;;;;;;;;;;;;;;;;6283146;22;19921;-93
2023/02/20 09:22:35;;;;;;;;;;;;;;;;;;6310960;22;19980;-95
2023/02/20 09:25:07;;;;;;;;;;;;;;;;;;6258064;22;19951;-95
2023/02/20 09:27:33;;;;;;;;;;;;;;;;;;6257929;22;20008;-94
2023/02/20 09:30:08;;;;;;;;;;;;;;;;;;6257597;22;19926;-95
2023/02/20 09:32:34;;;;;;;;;;;;;;;;;;6258788;22;19914;-95
2023/02/20 09:37:47;;;;;;;;;;;;;;;;;;6264000;22;19915;-95
2023/02/20 09:40:13;;;;;;;;;;;;;;;;;;6257189;22;19955;-92
2023/02/20 09:42:42;;;;;;;;;;;;;;;;;;6258877;22;19922;-95
2023/02/20 09:45:08;;;;;;;;;;;;;;;;;;6282982;22;19954;-93
2023/02/20 09:47:41;;;;;;;;;;;;;;;;;;6313662;22;19914;-96
2023/02/20 09:50:07;;;;;;;;;;;;;;;;;;6289977;22;19919;-92
2023/02/20 09:52:38;;;;;;;;;;;;;;;;;;6262414;22;19942;-96
2023/02/20 09:55:04;;;;;;;;;;;;;;;;;;6287050;22;19915;-94
2023/02/20 10:18:19;;;;;;;;;;;;;;;;;;6278333;22;20037;-92
2023/02/20 10:20:45;;;;;;;;;;;;;;;;;;6225906;22;19919;-92
2023/02/20 10:23:12;;;;;;;;;;;;;;;;;;6251160;22;19922;-92
2023/02/20 10:31:34;;;;;;;;;;;;;;;;;;;;;
2023/02/20 10:43:02;;;;;;;;;;;;;;;;;;6241396;22;19965;-95
2023/02/20 10:48:20;;;;;;;;;;;;;;;;;;6249030;22;20325;-95
2023/02/20 10:50:47;;;;;;;;;;;;;;;;;;6225241;22;19959;-91
2023/02/20 10:53:13;;;;;;;;;;;;;;;;;;6277741;22;19991;-91
2023/02/20 10:55:39;;;;;;;;;;;;;;;;;;6250432;22;19919;-91
2023/02/20 10:58:05;;;;;;;;;;;;;;;;;;6250131;22;19919;-92
2023/02/20 11:00:32;;;;;;;;;;;;;;;;;;6250561;22;19915;-92
2023/02/20 11:02:57;;;;;;;;;;;;;;;;;;6250217;22;19925;-91
2023/02/20 11:05:23;;;;;;;;;;;;;;;;;;6225097;22;20340;-92
2023/02/20 11:07:50;;;;;;;;;;;;;;;;;;6224429;22;19919;-91
2023/02/20 11:10:15;;;;;;;;;;;;;;;;;;6250537;22;19926;-93
2023/02/20 11:12:41;;;;;;;;;;;;;;;;;;6279637;22;19938;-93
2023/02/20 11:15:07;;;;;;;;;;;;;;;;;;6230227;22;19915;-92
2023/02/20 11:17:33;;;;;;;;;;;;;;;;;;6250726;22;19920;-93
2023/02/20 11:20:00;;;;;;;;;;;;;;;;;;6251172;22;19923;-92
2023/02/20 11:22:26;;;;;;;;;;;;;;;;;;6225475;22;19969;-92
2023/02/20 11:24:52;;;;;;;;;;;;;;;;;;6250896;22;19919;-92
2023/02/20 11:27:17;;;;;;;;;;;;;;;;;;6225415;22;19919;-94
2023/02/20 11:29:43;;;;;;;;;;;;;;;;;;6224958;22;19919;-92
2023/02/20 11:32:09;;;;;;;;;;;;;;;;;;6250942;22;20329;-93
2023/02/20 11:34:35;;;;;;;;;;;;;;;;;;6278302;22;19946;-94
2023/02/20 11:37:01;;;;;;;;;;;;;;;;;;6256111;22;19915;-94
2023/02/20 11:39:28;;;;;;;;;;;;;;;;;;6284182;22;19940;-94
2023/02/20 11:44:24;;;;;;;;;;;;;;;;;;6244982;22;20307;-90
2023/02/20 11:46:50;;;;;;;;;;;;;;;;;;6251315;22;19916;-89
2023/02/20 11:49:16;;;;;;;;;;;;;;;;;;6250764;22;20313;-90
2023/02/20 11:51:42;;;;;;;;;;;;;;;;;;6225967;22;19958;-90
2023/02/20 11:54:08;;;;;;;;;;;;;;;;;;6226078;22;19924;-90
2023/02/20 11:56:34;;;;;;;;;;;;;;;;;;6226239;22;19924;-90
2023/02/20 11:59:00;;;;;;;;;;;;;;;;;;6226057;22;19922;-90
2023/02/20 12:01:25;;;;;;;;;;;;;;;;;;6251523;22;20270;-90
2023/02/20 12:03:51;;;;;;;;;;;;;;;;;;6226259;22;20329;-95
2023/02/20 12:06:17;;;;;;;;;;;;;;;;;;6227644;22;19916;-89
2023/02/20 12:08:43;;;;;;;;;;;;;;;;;;6251958;22;19938;-90
2023/02/20 12:11:09;;;;;;;;;;;;;;;;;;6252819;22;20325;-94
2023/02/20 12:13:41;;;;;;;;;;;;;;;;;;6251842;22;19915;-95
2023/02/20 12:16:16;;;;;;;;;;;;;;;;;;6256227;22;19950;-96
2023/02/20 12:18:41;;;;;;;;;;;;;;;;;;6229121;22;19915;-90
2023/02/20 12:26:20;;;;;;;;;;;;;;;;;;6281972;22;19920;-89
2023/02/20 12:28:46;;;;;;;;;;;;;;;;;;6225504;22;19923;-90
2023/02/20 12:31:12;;;;;;;;;;;;;;;;;;6250672;22;19919;-90
2023/02/20 12:36:29;;;;;;;;;;;;;;;;;;6253968;22;19915;-94
2023/02/20 12:38:55;;;;;;;;;;;;;;;;;;6229409;22;20398;-95
2023/02/20 12:44:08;;;;;;;;;;;;;;;;;;6255960;22;19915;-90
2023/02/20 12:49:10;;;;;;;;;;;;;;;;;;6258928;22;19927;-90
2023/02/20 12:51:36;;;;;;;;;;;;;;;;;;6224860;22;19922;-89
2023/02/20 12:54:02;;;;;;;;;;;;;;;;;;6225317;22;19946;-90
2023/02/20 12:56:30;;;;;;;;;;;;;;;;;;6251314;22;19919;-90
2023/02/20 12:58:55;;;;;;;;;;;;;;;;;;6225476;22;19915;-90
2023/02/20 13:01:21;;;;;;;;;;;;;;;;;;6225315;22;19973;-89
2023/02/20 13:03:47;;;;;;;;;;;;;;;;;;6250639;22;20275;-89
2023/02/20 13:06:13;;;;;;;;;;;;;;;;;;6225320;22;19919;-90
2023/02/20 13:08:39;;;;;;;;;;;;;;;;;;6225214;22;19981;-90
2023/02/20 13:11:05;;;;;;;;;;;;;;;;;;6255645;22;20323;-93
2023/02/20 13:13:31;;;;;;;;;;;;;;;;;;6227099;22;19915;-93
2023/02/20 13:16:05;;;;;;;;;;;;;;;;;;6226146;22;20264;-93
2023/02/20 13:21:16;;;;;;;;;;;;;;;;;;6242247;22;19919;-94
2023/02/20 13:23:52;;;;;;;;;;;;;;;;;;;;;
2023/02/20 13:27:05;;;;;;;;;;;;;;;;;;6282063;22;19921;-96
2023/02/20 13:29:10;;;;;;;;;;;;;;;;;;6243125;22;19919;-93
2023/02/20 13:31:37;;;;;;;;;;;;;;;;;;6227317;22;20320;-95
2023/02/20 13:34:12;;;;;;;;;;;;;;;;;;6255558;22;19915;-93
2023/02/20 13:36:38;;;;;;;;;;;;;;;;;;6251664;22;20283;-91
2023/02/20 13:39:04;;;;;;;;;;;;;;;;;;6251802;22;19915;-93
2023/02/20 13:41:33;;;;;;;;;;;;;;;;;;6227615;22;19990;-94
2023/02/20 13:43:59;;;;;;;;;;;;;;;;;;6227304;22;20252;-93
2023/02/20 13:46:29;;;;;;;;;;;;;;;;;;6228235;22;19915;-93
2023/02/20 13:48:55;;;;;;;;;;;;;;;;;;6233546;22;19915;-93
2023/02/20 13:51:21;;;;;;;;;;;;;;;;;;6263598;22;19970;-93
2023/02/20 13:53:47;;;;;;;;;;;;;;;;;;6262982;22;19920;-93
2023/02/20 13:56:12;;;;;;;;;;;;;;;;;;6238050;22;19921;-92
2023/02/20 13:58:41;;;;;;;;;;;;;;;;;;6258919;22;20256;-92
2023/02/20 14:01:08;;;;;;;;;;;;;;;;;;6233833;22;19915;-93
2023/02/20 14:03:34;;;;;;;;;;;;;;;;;;6257314;22;19955;-91
2023/02/20 14:06:00;;;;;;;;;;;;;;;;;;6232453;22;19926;-92
2023/02/20 14:08:26;;;;;;;;;;;;;;;;;;6233617;22;19923;-92
2023/02/20 14:10:52;;;;;;;;;;;;;;;;;;6231889;22;19925;-95
2023/02/20 14:13:18;;;;;;;;;;;;;;;;;;6236923;22;19915;-93
2023/02/20 14:15:44;;;;;;;;;;;;;;;;;;6235518;22;19915;-94
2023/02/20 14:18:10;;;;;;;;;;;;;;;;;;6285941;22;20389;-92
2023/02/20 14:20:36;;;;;;;;;;;;;;;;;;6232845;22;19938;-93
2023/02/20 14:23:05;;;;;;;;;;;;;;;;;;6279999;22;20336;-93
2023/02/20 14:25:31;;;;;;;;;;;;;;;;;;6281597;22;19922;-92
2023/02/20 14:27:57;;;;;;;;;;;;;;;;;;6277480;22;19989;-92
2023/02/20 14:30:27;;;;;;;;;;;;;;;;;;6251352;22;20002;-94
2023/02/20 14:32:54;;;;;;;;;;;;;;;;;;6252008;22;20315;-94
2023/02/20 14:35:22;;;;;;;;;;;;;;;;;;6251078;22;19926;-93
2023/02/20 14:37:49;;;;;;;;;;;;;;;;;;6276050;22;19923;-93
2023/02/20 14:40:24;;;;;;;;;;;;;;;;;;;;;
2023/02/20 14:42:51;;;;;;;;;;;;;;;;;;6279081;22;19915;-94
2023/02/20 14:45:17;;;;;;;;;;;;;;;;;;6276820;22;20350;-95
2023/02/20 14:47:46;;;;;;;;;;;;;;;;;;6276823;22;19915;-93
2023/02/20 14:50:12;;;;;;;;;;;;;;;;;;6251015;22;19919;-93
2023/02/20 14:52:38;;;;;;;;;;;;;;;;;;6250732;22;19997;-91
2023/02/20 14:55:03;;;;;;;;;;;;;;;;;;6251406;22;19930;-93
2023/02/20 14:57:29;;;;;;;;;;;;;;;;;;6250364;22;19991;-93
2023/02/20 14:59:55;;;;;;;;;;;;;;;;;;6250944;22;19960;-93
2023/02/20 15:02:21;;;;;;;;;;;;;;;;;;6251341;22;19938;-92
2023/02/20 15:04:48;;;;;;;;;;;;;;;;;;6251334;22;19915;-92
2023/02/20 15:07:13;;;;;;;;;;;;;;;;;;6275885;22;19986;-93
2023/02/20 15:09:39;;;;;;;;;;;;;;;;;;6250377;22;19967;-93
2023/02/20 15:12:08;;;;;;;;;;;;;;;;;;6276648;22;19916;-95
2023/02/20 15:14:34;;;;;;;;;;;;;;;;;;6279632;22;19915;-92
2023/02/20 15:17:00;;;;;;;;;;;;;;;;;;6267906;22;19942;-91
2023/02/20 15:19:26;;;;;;;;;;;;;;;;;;6267700;22;19915;-92
2023/02/20 15:21:52;;;;;;;;;;;;;;;;;;6287775;22;19919;-94
2023/02/20 15:24:18;;;;;;;;;;;;;;;;;;6251216;22;19990;-92
2023/02/20 15:26:44;;;;;;;;;;;;;;;;;;6277130;22;19915;-91
2023/02/20 15:29:09;;;;;;;;;;;;;;;;;;6250986;22;19919;-93
2023/02/20 15:31:35;;;;;;;;;;;;;;;;;;6251059;22;19945;-92
2023/02/20 15:34:01;;;;;;;;;;;;;;;;;;6278620;22;19922;-93
2023/02/20 15:36:27;;;;;;;;;;;;;;;;;;6276736;22;19943;-93
2023/02/20 15:38:53;;;;;;;;;;;;;;;;;;6276077;22;19915;-91
2023/02/20 15:41:20;;;;;;;;;;;;;;;;;;6249745;22;20016;-90
2023/02/20 15:46:41;;;;;;;;;;;;;;;;;;6250808;22;19922;-91
2023/02/20 15:49:07;;;;;;;;;;;;;;;;;;6249852;22;19916;-91
2023/02/20 15:51:33;;;;;;;;;;;;;;;;;;6250260;22;19915;-91
2023/02/20 15:53:59;;;;;;;;;;;;;;;;;;6249845;22;19915;-90
2023/02/20 15:56:25;;;;;;;;;;;;;;;;;;6276758;22;19951;-91
2023/02/20 15:59:09;;;;;;;;;;;;;;;;;;6275544;22;19922;-96
2023/02/20 16:01:38;;;;;;;;;;;;;;;;;;6251829;22;20321;-92
2023/02/20 16:04:04;;;;;;;;;;;;;;;;;;6250512;22;19922;-92
2023/02/20 16:06:30;;;;;;;;;;;;;;;;;;6275529;22;19926;-92
2023/02/20 16:08:56;;;;;;;;;;;;;;;;;;6275434;22;19915;-93
2023/02/20 16:11:22;;;;;;;;;;;;;;;;;;6276408;22;19919;-92
2023/02/20 16:13:48;;;;;;;;;;;;;;;;;;6276558;22;19919;-93
2023/02/20 16:16:14;;;;;;;;;;;;;;;;;;6249665;22;19915;-92
2023/02/20 16:18:40;;;;;;;;;;;;;;;;;;6275403;22;19980;-91
2023/02/20 16:21:06;;;;;;;;;;;;;;;;;;6249596;22;19916;-91
2023/02/20 16:23:32;;;;;;;;;;;;;;;;;;6250236;22;19916;-93
2023/02/20 16:25:58;;;;;;;;;;;;;;;;;;6227379;22;19941;-92
2023/02/20 16:28:24;;;;;;;;;;;;;;;;;;6252075;22;20242;-92
2023/02/20 16:30:50;;;;;;;;;;;;;;;;;;6252342;22;19927;-91
2023/02/20 16:33:19;;;;;;;;;;;;;;;;;;6227617;22;19915;-93
2023/02/20 16:35:45;;;;;;;;;;;;;;;;;;6232155;22;19915;-91
2023/02/20 16:38:11;;;;;;;;;;;;;;;;;;6251425;22;19915;-92
2023/02/20 16:40:37;;;;;;;;;;;;;;;;;;6225867;22;19961;-90
2023/02/20 16:43:03;;;;;;;;;;;;;;;;;;6251864;22;19919;-91
2023/02/20 16:45:29;;;;;;;;;;;;;;;;;;6226169;22;19919;-91
2023/02/20 16:47:55;;;;;;;;;;;;;;;;;;6251769;22;20019;-90
2023/02/20 16:50:42;;;;;;;;;;;;;;;;;;6252484;22;20355;-96
2023/02/20 16:53:07;;;;;;;;;;;;;;;;;;6251122;22;19958;-92
2023/02/20 16:55:33;;;;;;;;;;;;;;;;;;6226777;22;19915;-94
2023/02/20 16:57:59;;;;;;;;;;;;;;;;;;6251696;22;19960;-92
2023/02/20 17:00:25;;;;;;;;;;;;;;;;;;6225975;22;20310;-93
2023/02/20 17:02:52;;;;;;;;;;;;;;;;;;6226562;22;19953;-93
2023/02/20 17:05:18;;;;;;;;;;;;;;;;;;6226083;22;19923;-90
2023/02/20 17:07:44;;;;;;;;;;;;;;;;;;6227227;22;19915;-91
2023/02/20 17:10:10;;;;;;;;;;;;;;;;;;6225869;22;19923;-92
2023/02/20 17:12:36;;;;;;;;;;;;;;;;;;6251750;22;19989;-90
2023/02/20 17:15:02;;;;;;;;;;;;;;;;;;6251304;22;19958;-92
2023/02/20 17:17:28;;;;;;;;;;;;;;;;;;6226356;22;19923;-90
2023/02/20 17:19:55;;;;;;;;;;;;;;;;;;6277771;22;19916;-88
2023/02/20 17:22:21;;;;;;;;;;;;;;;;;;6261032;22;19919;-92
2023/02/20 17:24:47;;;;;;;;;;;;;;;;;;6277395;22;19961;-92
2023/02/20 17:27:13;;;;;;;;;;;;;;;;;;6251974;22;20000;-89
2023/02/20 17:29:39;;;;;;;;;;;;;;;;;;6249630;22;19919;-89
2023/02/20 17:32:05;;;;;;;;;;;;;;;;;;6276068;22;19915;-89
2023/02/20 17:34:31;;;;;;;;;;;;;;;;;;6276089;22;20380;-90
2023/02/20 17:36:56;;;;;;;;;;;;;;;;;;6275729;22;20340;-89
2023/02/20 17:39:22;;;;;;;;;;;;;;;;;;6249627;22;19942;-89
2023/02/20 17:41:48;;;;;;;;;;;;;;;;;;6275627;22;19919;-89
2023/02/20 17:44:14;;;;;;;;;;;;;;;;;;6249537;22;19986;-89
2023/02/20 17:46:40;;;;;;;;;;;;;;;;;;6276268;22;19920;-91
2023/02/20 17:49:06;;;;;;;;;;;;;;;;;;6249489;22;20291;-88
2023/02/20 17:51:32;;;;;;;;;;;;;;;;;;6275716;22;19915;-88
2023/02/20 17:53:58;;;;;;;;;;;;;;;;;;6249837;22;19915;-89
2023/02/20 17:56:24;;;;;;;;;;;;;;;;;;6275291;22;19915;-88
2023/02/20 17:58:50;;;;;;;;;;;;;;;;;;6249337;22;20340;-88
2023/02/20 18:01:16;;;;;;;;;;;;;;;;;;6275329;22;19916;-88
2023/02/20 18:03:42;;;;;;;;;;;;;;;;;;6275058;22;20325;-88
2023/02/20 18:06:08;;;;;;;;;;;;;;;;;;6274602;22;19986;-89
2023/02/20 18:08:34;;;;;;;;;;;;;;;;;;6275093;22;19993;-88
2023/02/20 18:11:00;;;;;;;;;;;;;;;;;;6275276;22;19967;-90
2023/02/20 18:13:26;;;;;;;;;;;;;;;;;;6250633;22;20255;-90
2023/02/20 18:15:52;;;;;;;;;;;;;;;;;;6250212;22;19916;-90
2023/02/20 18:18:18;;;;;;;;;;;;;;;;;;6275616;22;20351;-91
2023/02/20 18:20:44;;;;;;;;;;;;;;;;;;6277195;22;20246;-90
2023/02/20 18:23:09;;;;;;;;;;;;;;;;;;6279486;22;19958;-91
2023/02/20 18:25:35;;;;;;;;;;;;;;;;;;6225407;22;20359;-92
2023/02/20 18:28:01;;;;;;;;;;;;;;;;;;6250861;22;19915;-90
2023/02/20 18:30:27;;;;;;;;;;;;;;;;;;6277559;22;19930;-91
2023/02/20 18:32:53;;;;;;;;;;;;;;;;;;6225344;22;20307;-91
2023/02/20 18:35:19;;;;;;;;;;;;;;;;;;6250278;22;19922;-90
2023/02/20 18:37:45;;;;;;;;;;;;;;;;;;6225295;22;20345;-91
2023/02/20 18:40:11;;;;;;;;;;;;;;;;;;6250683;22;19922;-91
2023/02/20 18:42:50;;;;;;;;;;;;;;;;;;;;;
2023/02/20 18:45:35;;;;;;;;;;;;;;;;;;6248850;22;19926;-94
2023/02/20 18:50:36;;;;;;;;;;;;;;;;;;6219568;23;20340;-93
2023/02/20 18:53:01;;;;;;;;;;;;;;;;;;6165385;23;19995;-92
2023/02/20 18:55:27;;;;;;;;;;;;;;;;;;6165389;23;19967;-92
2023/02/20 18:58:06;;;;;;;;;;;;;;;;;;;;;
2023/02/20 19:00:39;;;;;;;;;;;;;;;;;;6191329;23;20317;-91
2023/02/20 19:03:05;;;;;;;;;;;;;;;;;;6166086;23;19916;-92
2023/02/20 19:05:31;;;;;;;;;;;;;;;;;;6166080;23;20304;-93
2023/02/20 19:08:09;;;;;;;;;;;;;;;;;;6177486;23;20092;-95
2023/02/20 19:10:35;;;;;;;;;;;;;;;;;;6191137;23;20102;-94
2023/02/20 19:15:56;;;;;;;;;;;;;;;;;;6169030;23;20391;-91
2023/02/20 19:18:22;;;;;;;;;;;;;;;;;;6216962;23;19920;-92
2023/02/20 19:26:28;;;;;;;;;;;;;;;;;;6265697;22;20351;-93
2023/02/20 19:28:54;;;;;;;;;;;;;;;;;;6248517;22;19919;-92
2023/02/20 19:31:20;;;;;;;;;;;;;;;;;;6277889;22;19984;-90
2023/02/20 19:33:46;;;;;;;;;;;;;;;;;;6250176;22;19916;-90
2023/02/20 19:36:12;;;;;;;;;;;;;;;;;;6249592;22;19954;-89
2023/02/20 19:38:38;;;;;;;;;;;;;;;;;;6249202;22;19938;-93
2023/02/20 19:41:04;;;;;;;;;;;;;;;;;;6225633;22;20248;-92
2023/02/20 19:46:24;;;;;;;;;;;;;;;;;;6256808;22;19919;-93
2023/02/20 19:48:50;;;;;;;;;;;;;;;;;;6250482;22;19915;-94
2023/02/20 19:51:16;;;;;;;;;;;;;;;;;;6250482;22;20386;-91
2023/02/20 19:53:42;;;;;;;;;;;;;;;;;;6278075;22;19915;-91
2023/02/20 19:56:08;;;;;;;;;;;;;;;;;;6250444;22;20037;-93
2023/02/20 19:58:39;;;;;;;;;;;;;;;;;;6251276;22;19915;-90
2023/02/20 20:01:05;;;;;;;;;;;;;;;;;;6252285;22;19915;-90
2023/02/20 20:03:31;;;;;;;;;;;;;;;;;;6251683;22;19922;-90
2023/02/20 20:05:56;;;;;;;;;;;;;;;;;;6252441;22;19915;-91
2023/02/20 20:08:22;;;;;;;;;;;;;;;;;;6252241;22;19963;-92
2023/02/20 20:10:48;;;;;;;;;;;;;;;;;;6252124;22;19923;-91
2023/02/20 20:13:32;;;;;;;;;;;;;;;;;;6279368;22;19954;-95
2023/02/20 20:16:04;;;;;;;;;;;;;;;;;;6258435;22;20247;-96
2023/02/20 20:18:30;;;;;;;;;;;;;;;;;;6252464;22;20252;-92
2023/02/20 20:20:56;;;;;;;;;;;;;;;;;;6279081;22;19915;-92
2023/02/20 20:23:21;;;;;;;;;;;;;;;;;;6251769;22;19919;-90
2023/02/20 20:25:47;;;;;;;;;;;;;;;;;;6252626;22;19966;-92
2023/02/20 20:28:13;;;;;;;;;;;;;;;;;;6248233;22;19925;-92
2023/02/20 20:30:40;;;;;;;;;;;;;;;;;;6252591;22;19919;-94
2023/02/20 20:33:06;;;;;;;;;;;;;;;;;;6254438;22;20325;-93
2023/02/20 20:35:32;;;;;;;;;;;;;;;;;;6255684;22;19922;-95
2023/02/20 20:37:58;;;;;;;;;;;;;;;;;;6278149;22;19926;-93
2023/02/20 20:43:17;;;;;;;;;;;;;;;;;;6168980;23;19923;-94
2023/02/20 20:45:43;;;;;;;;;;;;;;;;;;6237063;22;19953;-94
2023/02/20 20:48:16;;;;;;;;;;;;;;;;;;6252330;22;19915;-96
2023/02/20 20:50:42;;;;;;;;;;;;;;;;;;6252548;22;20300;-94
2023/02/20 20:53:08;;;;;;;;;;;;;;;;;;6252376;22;19923;-94
2023/02/20 20:55:39;;;;;;;;;;;;;;;;;;6278634;22;19916;-95
2023/02/20 21:01:10;;;;;;;;;;;;;;;;;;6164278;23;19920;-95
2023/02/20 21:03:45;;;;;;;;;;;;;;;;;;6144611;23;19952;-96
2023/02/20 21:08:57;;;;;;;;;;;;;;;;;;6257306;22;20360;-93
2023/02/20 21:22:26;;;;;;;;;;;;;;;;;;6263800;22;19919;-90
2023/02/20 21:24:52;;;;;;;;;;;;;;;;;;6251154;22;20320;-92
2023/02/20 21:27:18;;;;;;;;;;;;;;;;;;6257906;22;20344;-93
2023/02/20 21:29:45;;;;;;;;;;;;;;;;;;6226841;22;19960;-92
2023/02/20 21:32:11;;;;;;;;;;;;;;;;;;6226685;22;19967;-93
2023/02/20 21:34:37;;;;;;;;;;;;;;;;;;6251674;22;20332;-94
2023/02/20 21:37:26;;;;;;;;;;;;;;;;;;6251895;22;19990;-94
2023/02/20 21:39:49;;;;;;;;;;;;;;;;;;6248792;22;19922;-94
2023/02/20 21:45:00;;;;;;;;;;;;;;;;;;6251659;22;19919;-95
